sensor_id;sensor_type;location;lat;lon;timestamp;temperature;humidity
6118;DHT22;3089;48.202;11.510;2023-03-01T00:01:29;0.80;99.90
6118;DHT22;3089;48.202;11.510;2023-03-01T00:03:58;0.90;99.90
6118;DHT22;3089;48.202;11.510;2023-03-01T00:06:28;0.80;99.90
6118;DHT22;3089;48.202;11.510;2023-03-01T00:08:56;0.70;99.90
6118;DHT22;3089;48.202;11.510;2023-03-01T00:11:25;0.60;99.90
6118;DHT22;3089;48.202;11.510;2023-03-01T00:13:55;0.60;99.90
6118;DHT22;3089;48.202;11.510;2023-03-01T00:16:27;0.70;99.90
6118;DHT22;3089;48.202;11.510;2023-03-01T00:18:57;0.60;99.90
6118;DHT22;3089;48.202;11.510;2023-03-01T00:21:25;0.60;99.90
6118;DHT22;3089;48.202;11.510;2023-03-01T00:23:55;0.60;99.90
6118;DHT22;3089;48.202;11.510;2023-03-01T00:26:25;0.60;99.90
6118;DHT22;3089;48.202;11.510;2023-03-01T00:28:53;0.60;99.90
6118;DHT22;3089;48.202;11.510;2023-03-01T00:31:23;0.50;99.90
6118;DHT22;3089;48.202;11.510;2023-03-01T00:33:53;0.50;99.90
6118;DHT22;3089;48.202;11.510;2023-03-01T00:36:25;0.60;99.90
6118;DHT22;3089;48.202;11.510;2023-03-01T00:38:54;0.60;99.90
6118;DHT22;3089;48.202;11.510;2023-03-01T00:41:23;0.60;99.90
6118;DHT22;3089;48.202;11.510;2023-03-01T00:43:53;0.60;99.90
6118;DHT22;3089;48.202;11.510;2023-03-01T00:46:22;0.60;99.90
6118;DHT22;3089;48.202;11.510;2023-03-01T00:48:51;0.50;99.90
6118;DHT22;3089;48.202;11.510;2023-03-01T00:51:21;0.60;99.90
6118;DHT22;3089;48.202;11.510;2023-03-01T00:53:51;0.60;99.90
6118;DHT22;3089;48.202;11.510;2023-03-01T00:56:20;0.60;99.90
6118;DHT22;3089;48.202;11.510;2023-03-01T00:58:48;0.60;99.90
6118;DHT22;3089;48.202;11.510;2023-03-01T01:01:18;0.50;99.90
6118;DHT22;3089;48.202;11.510;2023-03-01T01:03:48;0.40;99.90
6118;DHT22;3089;48.202;11.510;2023-03-01T01:06:18;0.50;99.90
6118;DHT22;3089;48.202;11.510;2023-03-01T01:08:47;0.50;99.90
6118;DHT22;3089;48.202;11.510;2023-03-01T01:11:15;0.60;99.90
6118;DHT22;3089;48.202;11.510;2023-03-01T01:13:46;0.50;99.90
6118;DHT22;3089;48.202;11.510;2023-03-01T01:16:15;0.50;99.90
6118;DHT22;3089;48.202;11.510;2023-03-01T01:18:43;0.50;99.90
6118;DHT22;3089;48.202;11.510;2023-03-01T01:21:13;0.50;99.90
6118;DHT22;3089;48.202;11.510;2023-03-01T01:23:42;0.40;99.90
6118;DHT22;3089;48.202;11.510;2023-03-01T01:26:13;0.40;99.90
6118;DHT22;3089;48.202;11.510;2023-03-01T01:28:41;0.40;99.90
6118;DHT22;3089;48.202;11.510;2023-03-01T01:31:10;0.50;99.90
6118;DHT22;3089;48.202;11.510;2023-03-01T01:33:38;0.50;99.90
6118;DHT22;3089;48.202;11.510;2023-03-01T01:36:07;0.50;99.90
6118;DHT22;3089;48.202;11.510;2023-03-01T01:38:36;0.40;99.90
6118;DHT22;3089;48.202;11.510;2023-03-01T01:41:06;0.40;99.90
6118;DHT22;3089;48.202;11.510;2023-03-01T01:43:36;0.40;99.90
6118;DHT22;3089;48.202;11.510;2023-03-01T01:46:05;0.40;99.90
6118;DHT22;3089;48.202;11.510;2023-03-01T01:48:39;0.40;99.90
6118;DHT22;3089;48.202;11.510;2023-03-01T01:51:17;0.50;99.90
6118;DHT22;3089;48.202;11.510;2023-03-01T01:53:49;0.40;99.90
6118;DHT22;3089;48.202;11.510;2023-03-01T01:56:19;0.40;99.90
6118;DHT22;3089;48.202;11.510;2023-03-01T01:58:47;0.50;99.90
6118;DHT22;3089;48.202;11.510;2023-03-01T02:01:16;0.50;99.90
6118;DHT22;3089;48.202;11.510;2023-03-01T02:03:46;0.60;99.90
6118;DHT22;3089;48.202;11.510;2023-03-01T02:06:19;0.50;99.90
6118;DHT22;3089;48.202;11.510;2023-03-01T02:08:50;0.50;99.90
6118;DHT22;3089;48.202;11.510;2023-03-01T02:11:20;0.40;99.90
6118;DHT22;3089;48.202;11.510;2023-03-01T02:13:49;0.40;99.90
6118;DHT22;3089;48.202;11.510;2023-03-01T02:16:17;0.30;99.90
6118;DHT22;3089;48.202;11.510;2023-03-01T02:18:47;0.30;99.90
6118;DHT22;3089;48.202;11.510;2023-03-01T02:21:25;0.50;99.90
6118;DHT22;3089;48.202;11.510;2023-03-01T02:23:54;0.50;99.90
6118;DHT22;3089;48.202;11.510;2023-03-01T02:26:30;0.50;99.90
6118;DHT22;3089;48.202;11.510;2023-03-01T02:29:02;0.40;99.90
6118;DHT22;3089;48.202;11.510;2023-03-01T02:31:32;0.50;99.90
6118;DHT22;3089;48.202;11.510;2023-03-01T02:34:11;0.40;99.90
6118;DHT22;3089;48.202;11.510;2023-03-01T02:36:40;0.70;99.90
6118;DHT22;3089;48.202;11.510;2023-03-01T02:39:14;0.50;99.90
6118;DHT22;3089;48.202;11.510;2023-03-01T02:41:47;0.40;99.90
6118;DHT22;3089;48.202;11.510;2023-03-01T02:44:16;0.40;99.90
6118;DHT22;3089;48.202;11.510;2023-03-01T02:46:47;0.30;99.90
6118;DHT22;3089;48.202;11.510;2023-03-01T02:49:21;0.40;99.90
6118;DHT22;3089;48.202;11.510;2023-03-01T02:52:01;0.50;99.90
6118;DHT22;3089;48.202;11.510;2023-03-01T02:54:39;0.30;99.90
6118;DHT22;3089;48.202;11.510;2023-03-01T02:57:07;0.50;99.90
6118;DHT22;3089;48.202;11.510;2023-03-01T02:59:38;0.40;99.90
6118;DHT22;3089;48.202;11.510;2023-03-01T03:02:07;0.40;99.90
6118;DHT22;3089;48.202;11.510;2023-03-01T03:04:35;0.40;99.90
6118;DHT22;3089;48.202;11.510;2023-03-01T03:07:03;0.30;99.90
6118;DHT22;3089;48.202;11.510;2023-03-01T03:09:31;0.10;99.90
6118;DHT22;3089;48.202;11.510;2023-03-01T03:11:59;0.40;99.90
6118;DHT22;3089;48.202;11.510;2023-03-01T03:14:26;0.30;99.90
6118;DHT22;3089;48.202;11.510;2023-03-01T03:16:56;0.20;99.90
6118;DHT22;3089;48.202;11.510;2023-03-01T03:19:23;0.20;99.90
6118;DHT22;3089;48.202;11.510;2023-03-01T03:21:51;0.20;99.90
6118;DHT22;3089;48.202;11.510;2023-03-01T03:24:19;0.20;99.90
6118;DHT22;3089;48.202;11.510;2023-03-01T03:26:47;0.30;99.90
6118;DHT22;3089;48.202;11.510;2023-03-01T03:29:15;0.20;99.90
6118;DHT22;3089;48.202;11.510;2023-03-01T03:31:43;0.20;99.90
6118;DHT22;3089;48.202;11.510;2023-03-01T03:34:12;0.30;99.90
6118;DHT22;3089;48.202;11.510;2023-03-01T03:36:44;0.20;99.90
6118;DHT22;3089;48.202;11.510;2023-03-01T03:39:12;0.20;99.90
6118;DHT22;3089;48.202;11.510;2023-03-01T03:41:40;0.20;99.90
6118;DHT22;3089;48.202;11.510;2023-03-01T03:44:07;0.10;99.90
6118;DHT22;3089;48.202;11.510;2023-03-01T03:46:35;0.00;99.90
6118;DHT22;3089;48.202;11.510;2023-03-01T03:49:04;0.00;99.90
6118;DHT22;3089;48.202;11.510;2023-03-01T03:51:33;0.20;99.90
6118;DHT22;3089;48.202;11.510;2023-03-01T03:54:01;0.10;99.90
6118;DHT22;3089;48.202;11.510;2023-03-01T03:56:28;0.10;99.90
6118;DHT22;3089;48.202;11.510;2023-03-01T03:58:57;0.10;99.90
6118;DHT22;3089;48.202;11.510;2023-03-01T04:01:24;0.20;99.90
6118;DHT22;3089;48.202;11.510;2023-03-01T04:03:52;0.10;99.90
6118;DHT22;3089;48.202;11.510;2023-03-01T04:06:21;0.10;99.90
6118;DHT22;3089;48.202;11.510;2023-03-01T04:08:50;0.00;99.90
6118;DHT22;3089;48.202;11.510;2023-03-01T04:11:24;0.00;99.90
6118;DHT22;3089;48.202;11.510;2023-03-01T04:13:56;0.00;99.90
6118;DHT22;3089;48.202;11.510;2023-03-01T04:16:24;0.00;99.90
6118;DHT22;3089;48.202;11.510;2023-03-01T04:18:52;0.00;99.90
6118;DHT22;3089;48.202;11.510;2023-03-01T04:21:21;0.00;99.90
6118;DHT22;3089;48.202;11.510;2023-03-01T04:23:50;0.00;99.90
6118;DHT22;3089;48.202;11.510;2023-03-01T04:26:19;-0.10;99.90
6118;DHT22;3089;48.202;11.510;2023-03-01T04:28:47;-0.20;99.90
6118;DHT22;3089;48.202;11.510;2023-03-01T04:31:18;-0.20;99.90
6118;DHT22;3089;48.202;11.510;2023-03-01T04:33:49;0.00;99.90
6118;DHT22;3089;48.202;11.510;2023-03-01T04:36:20;-0.20;99.90
6118;DHT22;3089;48.202;11.510;2023-03-01T04:38:50;-0.30;99.90
6118;DHT22;3089;48.202;11.510;2023-03-01T04:41:21;-0.30;99.90
6118;DHT22;3089;48.202;11.510;2023-03-01T04:43:49;-0.30;99.90
6118;DHT22;3089;48.202;11.510;2023-03-01T04:46:19;-0.20;99.90
6118;DHT22;3089;48.202;11.510;2023-03-01T04:48:47;0.00;99.90
6118;DHT22;3089;48.202;11.510;2023-03-01T04:51:15;-0.30;99.90
6118;DHT22;3089;48.202;11.510;2023-03-01T04:53:43;-0.40;99.90
6118;DHT22;3089;48.202;11.510;2023-03-01T04:56:13;0.00;99.90
6118;DHT22;3089;48.202;11.510;2023-03-01T04:58:41;0.00;99.90
6118;DHT22;3089;48.202;11.510;2023-03-01T05:01:10;-0.40;99.90
6118;DHT22;3089;48.202;11.510;2023-03-01T05:03:42;-0.40;99.90
6118;DHT22;3089;48.202;11.510;2023-03-01T05:06:11;-0.50;99.90
6118;DHT22;3089;48.202;11.510;2023-03-01T05:08:41;-0.70;99.90
6118;DHT22;3089;48.202;11.510;2023-03-01T05:11:09;-0.70;99.90
6118;DHT22;3089;48.202;11.510;2023-03-01T05:13:39;-0.60;99.90
6118;DHT22;3089;48.202;11.510;2023-03-01T05:16:08;-0.50;99.90
6118;DHT22;3089;48.202;11.510;2023-03-01T05:18:38;-0.70;99.90
6118;DHT22;3089;48.202;11.510;2023-03-01T05:21:08;-0.70;99.90
6118;DHT22;3089;48.202;11.510;2023-03-01T05:23:37;-0.90;99.90
6118;DHT22;3089;48.202;11.510;2023-03-01T05:26:06;-0.60;99.90
6118;DHT22;3089;48.202;11.510;2023-03-01T05:28:43;-0.60;99.90
6118;DHT22;3089;48.202;11.510;2023-03-01T05:31:11;-0.80;99.90
6118;DHT22;3089;48.202;11.510;2023-03-01T05:33:40;-0.80;99.90
6118;DHT22;3089;48.202;11.510;2023-03-01T05:36:09;-0.90;99.90
6118;DHT22;3089;48.202;11.510;2023-03-01T05:38:37;-0.90;99.90
6118;DHT22;3089;48.202;11.510;2023-03-01T05:41:05;-0.40;99.90
6118;DHT22;3089;48.202;11.510;2023-03-01T05:43:40;-0.80;99.90
6118;DHT22;3089;48.202;11.510;2023-03-01T05:46:11;-0.80;99.90
6118;DHT22;3089;48.202;11.510;2023-03-01T05:48:40;-0.40;99.90
6118;DHT22;3089;48.202;11.510;2023-03-01T05:51:08;-0.50;99.90
6118;DHT22;3089;48.202;11.510;2023-03-01T05:53:35;-0.80;99.90
6118;DHT22;3089;48.202;11.510;2023-03-01T05:56:04;-0.70;99.90
6118;DHT22;3089;48.202;11.510;2023-03-01T05:58:32;-0.60;99.90
6118;DHT22;3089;48.202;11.510;2023-03-01T06:01:00;-0.50;99.90
6118;DHT22;3089;48.202;11.510;2023-03-01T06:03:29;-0.40;99.90
6118;DHT22;3089;48.202;11.510;2023-03-01T06:05:57;-0.70;99.90
6118;DHT22;3089;48.202;11.510;2023-03-01T06:08:25;-0.80;99.90
6118;DHT22;3089;48.202;11.510;2023-03-01T06:10:53;-0.80;99.90
6118;DHT22;3089;48.202;11.510;2023-03-01T06:13:21;-0.90;99.90
6118;DHT22;3089;48.202;11.510;2023-03-01T06:15:50;-0.80;99.90
6118;DHT22;3089;48.202;11.510;2023-03-01T06:18:18;-0.80;99.90
6118;DHT22;3089;48.202;11.510;2023-03-01T06:20:52;-0.80;99.90
6118;DHT22;3089;48.202;11.510;2023-03-01T06:23:20;-0.90;99.90
6118;DHT22;3089;48.202;11.510;2023-03-01T06:25:48;-0.80;99.90
6118;DHT22;3089;48.202;11.510;2023-03-01T06:28:16;-0.80;99.90
6118;DHT22;3089;48.202;11.510;2023-03-01T06:30:44;-0.70;99.90
6118;DHT22;3089;48.202;11.510;2023-03-01T06:33:12;-0.60;99.90
6118;DHT22;3089;48.202;11.510;2023-03-01T06:35:42;-0.80;99.90
6118;DHT22;3089;48.202;11.510;2023-03-01T06:38:12;-0.80;99.90
6118;DHT22;3089;48.202;11.510;2023-03-01T06:40:41;-0.80;99.90
6118;DHT22;3089;48.202;11.510;2023-03-01T06:43:09;-0.50;99.90
6118;DHT22;3089;48.202;11.510;2023-03-01T06:45:37;-0.80;99.90
6118;DHT22;3089;48.202;11.510;2023-03-01T06:48:06;-0.80;99.90
6118;DHT22;3089;48.202;11.510;2023-03-01T06:50:34;-0.80;99.90
6118;DHT22;3089;48.202;11.510;2023-03-01T06:53:02;-0.80;99.90
6118;DHT22;3089;48.202;11.510;2023-03-01T06:55:32;-0.90;99.90
6118;DHT22;3089;48.202;11.510;2023-03-01T06:58:01;-0.50;99.90
6118;DHT22;3089;48.202;11.510;2023-03-01T07:00:30;-0.80;99.90
6118;DHT22;3089;48.202;11.510;2023-03-01T07:02:59;-0.90;99.90
6118;DHT22;3089;48.202;11.510;2023-03-01T07:05:28;-0.90;99.90
6118;DHT22;3089;48.202;11.510;2023-03-01T07:07:56;-0.90;99.90
6118;DHT22;3089;48.202;11.510;2023-03-01T07:10:24;-0.50;99.90
6118;DHT22;3089;48.202;11.510;2023-03-01T07:12:55;-0.40;99.90
6118;DHT22;3089;48.202;11.510;2023-03-01T07:15:24;-0.90;99.90
6118;DHT22;3089;48.202;11.510;2023-03-01T07:17:52;-0.90;99.90
6118;DHT22;3089;48.202;11.510;2023-03-01T07:20:20;-0.80;99.90
6118;DHT22;3089;48.202;11.510;2023-03-01T07:22:51;-0.70;99.90
6118;DHT22;3089;48.202;11.510;2023-03-01T07:25:21;-0.80;99.90
6118;DHT22;3089;48.202;11.510;2023-03-01T07:27:49;-0.40;99.90
6118;DHT22;3089;48.202;11.510;2023-03-01T07:30:20;-0.40;99.90
6118;DHT22;3089;48.202;11.510;2023-03-01T07:32:48;-0.70;99.90
6118;DHT22;3089;48.202;11.510;2023-03-01T07:35:16;-0.70;99.90
6118;DHT22;3089;48.202;11.510;2023-03-01T07:37:44;-0.60;99.90
6118;DHT22;3089;48.202;11.510;2023-03-01T07:40:12;-0.30;99.90
6118;DHT22;3089;48.202;11.510;2023-03-01T07:42:40;-0.40;99.90
6118;DHT22;3089;48.202;11.510;2023-03-01T07:45:09;-0.60;99.90
6118;DHT22;3089;48.202;11.510;2023-03-01T07:47:38;-0.50;99.90
6118;DHT22;3089;48.202;11.510;2023-03-01T07:50:07;-0.30;99.90
6118;DHT22;3089;48.202;11.510;2023-03-01T07:52:37;-0.10;99.90
6118;DHT22;3089;48.202;11.510;2023-03-01T07:55:06;-0.30;99.90
6118;DHT22;3089;48.202;11.510;2023-03-01T07:57:34;-0.10;99.90
6118;DHT22;3089;48.202;11.510;2023-03-01T08:00:02;-0.10;99.90
6118;DHT22;3089;48.202;11.510;2023-03-01T08:02:30;-0.20;99.90
6118;DHT22;3089;48.202;11.510;2023-03-01T08:04:59;0.00;99.90
6118;DHT22;3089;48.202;11.510;2023-03-01T08:07:27;-0.20;99.90
6118;DHT22;3089;48.202;11.510;2023-03-01T08:09:55;0.00;99.90
6118;DHT22;3089;48.202;11.510;2023-03-01T08:12:23;-0.30;99.90
6118;DHT22;3089;48.202;11.510;2023-03-01T08:14:51;-0.20;99.90
6118;DHT22;3089;48.202;11.510;2023-03-01T08:17:19;0.00;99.90
6118;DHT22;3089;48.202;11.510;2023-03-01T08:19:46;-0.10;99.90
6118;DHT22;3089;48.202;11.510;2023-03-01T08:22:16;-0.10;99.90
6118;DHT22;3089;48.202;11.510;2023-03-01T08:24:43;0.00;99.90
6118;DHT22;3089;48.202;11.510;2023-03-01T08:27:11;-0.10;99.90
6118;DHT22;3089;48.202;11.510;2023-03-01T08:29:39;0.10;99.90
6118;DHT22;3089;48.202;11.510;2023-03-01T08:32:07;-0.20;99.90
6118;DHT22;3089;48.202;11.510;2023-03-01T08:34:35;-0.20;99.90
6118;DHT22;3089;48.202;11.510;2023-03-01T08:37:03;0.00;99.90
6118;DHT22;3089;48.202;11.510;2023-03-01T08:39:32;-0.10;99.90
6118;DHT22;3089;48.202;11.510;2023-03-01T08:42:00;0.10;99.90
6118;DHT22;3089;48.202;11.510;2023-03-01T08:44:28;0.20;99.90
6118;DHT22;3089;48.202;11.510;2023-03-01T08:46:56;-0.10;99.90
6118;DHT22;3089;48.202;11.510;2023-03-01T08:49:24;0.20;99.90
6118;DHT22;3089;48.202;11.510;2023-03-01T08:51:53;0.20;99.90
6118;DHT22;3089;48.202;11.510;2023-03-01T08:54:22;0.20;99.90
6118;DHT22;3089;48.202;11.510;2023-03-01T08:56:51;0.40;99.90
6118;DHT22;3089;48.202;11.510;2023-03-01T08:59:19;0.50;99.90
6118;DHT22;3089;48.202;11.510;2023-03-01T09:01:47;0.40;99.90
6118;DHT22;3089;48.202;11.510;2023-03-01T09:04:15;0.40;99.90
6118;DHT22;3089;48.202;11.510;2023-03-01T09:06:43;0.50;99.90
6118;DHT22;3089;48.202;11.510;2023-03-01T09:09:14;0.40;99.90
6118;DHT22;3089;48.202;11.510;2023-03-01T09:11:43;0.30;99.90
6118;DHT22;3089;48.202;11.510;2023-03-01T09:14:14;0.70;99.90
6118;DHT22;3089;48.202;11.510;2023-03-01T09:16:42;0.70;99.90
6118;DHT22;3089;48.202;11.510;2023-03-01T09:19:10;0.70;99.90
6118;DHT22;3089;48.202;11.510;2023-03-01T09:21:38;0.60;99.90
6118;DHT22;3089;48.202;11.510;2023-03-01T09:24:12;0.40;99.90
6118;DHT22;3089;48.202;11.510;2023-03-01T09:26:40;0.50;99.90
6118;DHT22;3089;48.202;11.510;2023-03-01T09:29:08;0.60;99.90
6118;DHT22;3089;48.202;11.510;2023-03-01T09:31:38;0.80;99.90
6118;DHT22;3089;48.202;11.510;2023-03-01T09:34:07;0.70;99.90
6118;DHT22;3089;48.202;11.510;2023-03-01T09:36:35;0.60;99.90
6118;DHT22;3089;48.202;11.510;2023-03-01T09:39:03;0.80;99.90
6118;DHT22;3089;48.202;11.510;2023-03-01T09:41:43;0.80;99.90
6118;DHT22;3089;48.202;11.510;2023-03-01T09:44:20;0.90;99.90
6118;DHT22;3089;48.202;11.510;2023-03-01T09:46:50;0.90;99.90
6118;DHT22;3089;48.202;11.510;2023-03-01T09:49:21;0.90;99.90
6118;DHT22;3089;48.202;11.510;2023-03-01T09:51:57;1.10;99.90
6118;DHT22;3089;48.202;11.510;2023-03-01T09:54:26;1.30;99.90
6118;DHT22;3089;48.202;11.510;2023-03-01T09:59:55;0.90;99.90
6118;DHT22;3089;48.202;11.510;2023-03-01T10:02:33;1.20;99.90
6118;DHT22;3089;48.202;11.510;2023-03-01T10:05:13;1.20;99.90
6118;DHT22;3089;48.202;11.510;2023-03-01T10:07:47;1.30;99.90
6118;DHT22;3089;48.202;11.510;2023-03-01T10:10:26;1.40;99.90
6118;DHT22;3089;48.202;11.510;2023-03-01T10:12:55;1.70;99.90
6118;DHT22;3089;48.202;11.510;2023-03-01T10:15:33;2.20;99.90
6118;DHT22;3089;48.202;11.510;2023-03-01T10:18:06;2.60;99.90
6118;DHT22;3089;48.202;11.510;2023-03-01T10:20:43;2.30;99.90
6118;DHT22;3089;48.202;11.510;2023-03-01T10:23:14;1.80;99.90
6118;DHT22;3089;48.202;11.510;2023-03-01T10:25:52;1.80;99.90
6118;DHT22;3089;48.202;11.510;2023-03-01T10:28:28;2.00;99.90
6118;DHT22;3089;48.202;11.510;2023-03-01T10:30:58;2.20;99.90
6118;DHT22;3089;48.202;11.510;2023-03-01T10:33:30;1.80;99.90
6118;DHT22;3089;48.202;11.510;2023-03-01T10:35:58;1.50;99.90
6118;DHT22;3089;48.202;11.510;2023-03-01T10:38:30;2.00;99.90
6118;DHT22;3089;48.202;11.510;2023-03-01T10:40:59;2.40;99.90
6118;DHT22;3089;48.202;11.510;2023-03-01T10:43:45;2.00;99.90
6118;DHT22;3089;48.202;11.510;2023-03-01T10:46:23;2.00;99.90
6118;DHT22;3089;48.202;11.510;2023-03-01T10:49:14;2.20;99.90
6118;DHT22;3089;48.202;11.510;2023-03-01T10:51:44;2.30;99.90
6118;DHT22;3089;48.202;11.510;2023-03-01T10:54:18;2.60;99.90
6118;DHT22;3089;48.202;11.510;2023-03-01T10:56:51;2.50;99.90
6118;DHT22;3089;48.202;11.510;2023-03-01T10:59:25;2.10;99.90
6118;DHT22;3089;48.202;11.510;2023-03-01T11:02:14;2.40;99.90
6118;DHT22;3089;48.202;11.510;2023-03-01T11:05:00;2.50;99.90
6118;DHT22;3089;48.202;11.510;2023-03-01T11:07:28;2.80;99.90
6118;DHT22;3089;48.202;11.510;2023-03-01T11:09:56;2.40;99.90
6118;DHT22;3089;48.202;11.510;2023-03-01T11:12:24;2.50;99.90
6118;DHT22;3089;48.202;11.510;2023-03-01T11:14:55;2.70;99.90
6118;DHT22;3089;48.202;11.510;2023-03-01T11:17:27;2.90;99.90
6118;DHT22;3089;48.202;11.510;2023-03-01T11:20:10;2.90;99.90
6118;DHT22;3089;48.202;11.510;2023-03-01T11:22:47;3.00;99.90
6118;DHT22;3089;48.202;11.510;2023-03-01T11:25:15;2.90;99.90
6118;DHT22;3089;48.202;11.510;2023-03-01T11:27:45;3.30;99.90
6118;DHT22;3089;48.202;11.510;2023-03-01T11:30:19;3.10;99.90
6118;DHT22;3089;48.202;11.510;2023-03-01T11:32:53;2.90;99.90
6118;DHT22;3089;48.202;11.510;2023-03-01T11:35:27;3.20;99.90
6118;DHT22;3089;48.202;11.510;2023-03-01T11:38:02;3.30;99.90
6118;DHT22;3089;48.202;11.510;2023-03-01T11:40:35;3.80;99.90
6118;DHT22;3089;48.202;11.510;2023-03-01T11:43:12;3.30;99.90
6118;DHT22;3089;48.202;11.510;2023-03-01T11:45:51;3.20;99.90
6118;DHT22;3089;48.202;11.510;2023-03-01T11:48:33;3.00;99.90
6118;DHT22;3089;48.202;11.510;2023-03-01T11:51:22;3.50;99.90
6118;DHT22;3089;48.202;11.510;2023-03-01T11:54:00;3.20;99.90
6118;DHT22;3089;48.202;11.510;2023-03-01T11:56:34;3.40;99.90
6118;DHT22;3089;48.202;11.510;2023-03-01T11:59:30;4.10;99.90
6118;DHT22;3089;48.202;11.510;2023-03-01T12:05:36;3.40;99.90
6118;DHT22;3089;48.202;11.510;2023-03-01T12:08:12;4.50;99.90
6118;DHT22;3089;48.202;11.510;2023-03-01T12:10:48;4.50;99.90
6118;DHT22;3089;48.202;11.510;2023-03-01T12:16:32;3.90;99.90
6118;DHT22;3089;48.202;11.510;2023-03-01T12:19:25;3.80;99.90
6118;DHT22;3089;48.202;11.510;2023-03-01T12:22:14;3.90;99.90
6118;DHT22;3089;48.202;11.510;2023-03-01T12:25:11;3.80;99.90
6118;DHT22;3089;48.202;11.510;2023-03-01T12:27:55;3.70;99.90
6118;DHT22;3089;48.202;11.510;2023-03-01T12:30:35;3.70;99.90
6118;DHT22;3089;48.202;11.510;2023-03-01T12:33:20;3.80;99.90
6118;DHT22;3089;48.202;11.510;2023-03-01T12:35:59;4.10;99.90
6118;DHT22;3089;48.202;11.510;2023-03-01T12:38:33;4.30;99.90
6118;DHT22;3089;48.202;11.510;2023-03-01T12:44:04;4.10;99.90
6118;DHT22;3089;48.202;11.510;2023-03-01T12:46:46;4.00;99.90
6118;DHT22;3089;48.202;11.510;2023-03-01T12:49:22;4.10;99.90
6118;DHT22;3089;48.202;11.510;2023-03-01T12:51:56;4.70;99.90
6118;DHT22;3089;48.202;11.510;2023-03-01T12:54:27;4.30;99.90
6118;DHT22;3089;48.202;11.510;2023-03-01T12:57:02;4.30;99.90
6118;DHT22;3089;48.202;11.510;2023-03-01T12:59:37;4.50;99.90
6118;DHT22;3089;48.202;11.510;2023-03-01T13:02:15;4.30;99.90
6118;DHT22;3089;48.202;11.510;2023-03-01T13:04:58;4.30;99.90
6118;DHT22;3089;48.202;11.510;2023-03-01T13:07:32;4.40;99.90
6118;DHT22;3089;48.202;11.510;2023-03-01T13:10:19;4.50;99.90
6118;DHT22;3089;48.202;11.510;2023-03-01T13:13:02;4.70;99.90
6118;DHT22;3089;48.202;11.510;2023-03-01T13:15:32;4.70;99.90
6118;DHT22;3089;48.202;11.510;2023-03-01T13:18:03;4.90;99.90
6118;DHT22;3089;48.202;11.510;2023-03-01T13:20:34;4.90;99.90
6118;DHT22;3089;48.202;11.510;2023-03-01T13:23:23;4.70;99.90
6118;DHT22;3089;48.202;11.510;2023-03-01T13:26:07;4.70;99.90
6118;DHT22;3089;48.202;11.510;2023-03-01T13:28:57;4.70;99.90
6118;DHT22;3089;48.202;11.510;2023-03-01T13:31:57;4.70;99.90
6118;DHT22;3089;48.202;11.510;2023-03-01T13:34:42;5.00;99.90
6118;DHT22;3089;48.202;11.510;2023-03-01T13:37:18;4.80;99.90
6118;DHT22;3089;48.202;11.510;2023-03-01T13:39:46;4.60;99.90
6118;DHT22;3089;48.202;11.510;2023-03-01T13:42:44;4.60;99.90
6118;DHT22;3089;48.202;11.510;2023-03-01T13:45:35;4.70;99.90
6118;DHT22;3089;48.202;11.510;2023-03-01T13:48:09;4.80;99.90
6118;DHT22;3089;48.202;11.510;2023-03-01T13:50:45;4.90;99.90
6118;DHT22;3089;48.202;11.510;2023-03-01T13:53:17;4.70;99.90
6118;DHT22;3089;48.202;11.510;2023-03-01T13:55:47;4.60;99.90
6118;DHT22;3089;48.202;11.510;2023-03-01T13:58:20;4.70;99.90
6118;DHT22;3089;48.202;11.510;2023-03-01T14:00:58;4.90;99.90
6118;DHT22;3089;48.202;11.510;2023-03-01T14:03:27;4.90;99.90
6118;DHT22;3089;48.202;11.510;2023-03-01T14:06:05;4.90;99.90
6118;DHT22;3089;48.202;11.510;2023-03-01T14:08:42;5.00;99.90
6118;DHT22;3089;48.202;11.510;2023-03-01T14:11:35;4.90;99.90
6118;DHT22;3089;48.202;11.510;2023-03-01T14:14:29;5.10;99.90
6118;DHT22;3089;48.202;11.510;2023-03-01T14:17:10;5.20;99.90
6118;DHT22;3089;48.202;11.510;2023-03-01T14:19:45;5.10;99.90
6118;DHT22;3089;48.202;11.510;2023-03-01T14:22:19;5.00;99.90
6118;DHT22;3089;48.202;11.510;2023-03-01T14:24:49;5.00;99.90
6118;DHT22;3089;48.202;11.510;2023-03-01T14:27:18;5.10;99.90
6118;DHT22;3089;48.202;11.510;2023-03-01T14:29:55;5.10;99.90
6118;DHT22;3089;48.202;11.510;2023-03-01T14:32:27;5.10;99.90
6118;DHT22;3089;48.202;11.510;2023-03-01T14:34:56;5.30;99.90
6118;DHT22;3089;48.202;11.510;2023-03-01T14:37:26;5.10;99.90
6118;DHT22;3089;48.202;11.510;2023-03-01T14:39:55;5.20;99.90
6118;DHT22;3089;48.202;11.510;2023-03-01T14:42:27;5.20;99.90
6118;DHT22;3089;48.202;11.510;2023-03-01T14:44:57;5.20;99.90
6118;DHT22;3089;48.202;11.510;2023-03-01T14:47:28;5.30;99.90
6118;DHT22;3089;48.202;11.510;2023-03-01T14:49:59;5.20;99.90
6118;DHT22;3089;48.202;11.510;2023-03-01T14:52:33;5.00;99.90
6118;DHT22;3089;48.202;11.510;2023-03-01T14:55:04;5.20;99.90
6118;DHT22;3089;48.202;11.510;2023-03-01T14:57:33;5.20;99.90
6118;DHT22;3089;48.202;11.510;2023-03-01T15:00:03;5.30;99.90
6118;DHT22;3089;48.202;11.510;2023-03-01T15:02:34;5.30;99.90
6118;DHT22;3089;48.202;11.510;2023-03-01T15:05:04;5.30;99.90
6118;DHT22;3089;48.202;11.510;2023-03-01T15:07:38;5.40;99.90
6118;DHT22;3089;48.202;11.510;2023-03-01T15:10:16;5.30;99.90
6118;DHT22;3089;48.202;11.510;2023-03-01T15:12:45;5.30;99.90
6118;DHT22;3089;48.202;11.510;2023-03-01T15:18:17;5.50;99.90
6118;DHT22;3089;48.202;11.510;2023-03-01T15:20:45;5.30;99.90
6118;DHT22;3089;48.202;11.510;2023-03-01T15:23:25;5.30;99.90
6118;DHT22;3089;48.202;11.510;2023-03-01T15:25:54;5.40;99.90
6118;DHT22;3089;48.202;11.510;2023-03-01T15:28:26;5.30;99.90
6118;DHT22;3089;48.202;11.510;2023-03-01T15:30:57;5.20;99.90
6118;DHT22;3089;48.202;11.510;2023-03-01T15:33:33;5.20;99.90
6118;DHT22;3089;48.202;11.510;2023-03-01T15:36:04;5.20;99.90
6118;DHT22;3089;48.202;11.510;2023-03-01T15:38:53;5.20;99.90
6118;DHT22;3089;48.202;11.510;2023-03-01T15:41:23;5.30;99.90
6118;DHT22;3089;48.202;11.510;2023-03-01T15:43:52;5.30;99.90
6118;DHT22;3089;48.202;11.510;2023-03-01T15:46:28;5.30;99.90
6118;DHT22;3089;48.202;11.510;2023-03-01T15:48:59;5.30;99.90
6118;DHT22;3089;48.202;11.510;2023-03-01T15:51:31;5.10;99.90
6118;DHT22;3089;48.202;11.510;2023-03-01T15:54:02;5.10;99.90
6118;DHT22;3089;48.202;11.510;2023-03-01T15:56:31;5.10;99.90
6118;DHT22;3089;48.202;11.510;2023-03-01T15:59:01;5.20;99.90
6118;DHT22;3089;48.202;11.510;2023-03-01T16:01:29;5.20;99.90
6118;DHT22;3089;48.202;11.510;2023-03-01T16:04:02;5.20;99.90
6118;DHT22;3089;48.202;11.510;2023-03-01T16:06:30;5.10;99.90
6118;DHT22;3089;48.202;11.510;2023-03-01T16:08:58;5.00;99.90
6118;DHT22;3089;48.202;11.510;2023-03-01T16:11:26;5.20;99.90
6118;DHT22;3089;48.202;11.510;2023-03-01T16:13:54;5.10;99.90
6118;DHT22;3089;48.202;11.510;2023-03-01T16:16:22;5.10;99.90
6118;DHT22;3089;48.202;11.510;2023-03-01T16:18:51;5.00;99.90
6118;DHT22;3089;48.202;11.510;2023-03-01T16:21:23;5.10;99.90
6118;DHT22;3089;48.202;11.510;2023-03-01T16:23:52;5.10;99.90
6118;DHT22;3089;48.202;11.510;2023-03-01T16:26:20;5.00;99.90
6118;DHT22;3089;48.202;11.510;2023-03-01T16:28:48;5.10;99.90
6118;DHT22;3089;48.202;11.510;2023-03-01T16:31:18;4.90;99.90
6118;DHT22;3089;48.202;11.510;2023-03-01T16:33:47;4.80;99.90
6118;DHT22;3089;48.202;11.510;2023-03-01T16:36:18;4.90;99.90
6118;DHT22;3089;48.202;11.510;2023-03-01T16:38:47;4.70;99.90
6118;DHT22;3089;48.202;11.510;2023-03-01T16:41:17;4.60;99.90